Time;durP1;ratioP1;P1;durP2;ratioP2;P2;SDS_P1;SDS_P2;PMS_P1;PMS_P2;Temp;Humidity;BMP_temperature;BMP_pressure;BME280_temperature;BME280_humidity;BME280_pressure;Samples;Min_cycle;Max_cycle;Signal;HPM_P1;HPM_P2
2023/11/28 00:00:32;;;;;;;;;;;;;;;16.58;40.82;100498.88;4958067;28;1093;-56
2023/11/28 00:02:58;;;;;;;;;;;;;;;18.41;37.47;100505.69;4957724;28;1121;-54
2023/11/28 00:05:23;;;;;;;;;;;;;;;15.55;42.78;100504.66;4957941;28;1181;-54
2023/11/28 00:07:49;;;;;;;;;;;;;;;16.99;40.95;100509.06;4957490;28;1911;-54
2023/11/28 00:10:14;;;;;;;;;;;;;;;18.48;37.09;100509.50;4960710;28;1090;-55
2023/11/28 00:12:40;;;;;;;;;;;;;;;16.98;39.92;100502.91;4961850;28;1149;-54
2023/11/28 00:15:06;;;;;;;;;;;;;;;16.34;41.31;100502.47;4961803;28;1026;-50
2023/11/28 00:17:31;;;;;;;;;;;;;;;17.68;38.60;100501.88;4961199;28;1049;-54
2023/11/28 00:19:57;;;;;;;;;;;;;;;16.48;40.92;100505.91;4961688;28;1058;-51
2023/11/28 00:22:22;;;;;;;;;;;;;;;18.34;37.66;100502.72;4959643;28;1077;-53
2023/11/28 00:24:48;;;;;;;;;;;;;;;14.78;44.45;100500.31;4961650;28;1025;-51
2023/11/28 00:27:13;;;;;;;;;;;;;;;17.46;39.47;100495.66;4961232;28;2082;-54
2023/11/28 00:29:39;;;;;;;;;;;;;;;18.25;37.36;100494.66;4961470;28;1034;-50
2023/11/28 00:32:04;;;;;;;;;;;;;;;15.30;44.29;100489.66;4960824;28;1064;-51
2023/11/28 00:34:30;;;;;;;;;;;;;;;18.30;37.91;100489.78;4960387;28;1224;-55
2023/11/28 00:36:55;;;;;;;;;;;;;;;15.64;42.53;100478.41;4961573;28;1145;-54
2023/11/28 00:39:22;;;;;;;;;;;;;;;16.97;40.76;100485.28;4961135;28;1094;-51
2023/11/28 00:41:47;;;;;;;;;;;;;;;18.65;36.96;100479.75;4960843;28;1065;-55
2023/11/28 00:44:13;;;;;;;;;;;;;;;16.99;40.07;100471.88;4959908;28;1149;-56
2023/11/28 00:46:40;;;;;;;;;;;;;;;16.64;41.12;100455.94;4959830;28;1899;-54
2023/11/28 00:49:05;;;;;;;;;;;;;;;17.23;39.61;100449.66;4961125;28;1053;-55
2023/11/28 00:51:32;;;;;;;;;;;;;;;16.39;41.62;100444.56;4959875;28;1320;-54
2023/11/28 00:53:58;;;;;;;;;;;;;;;18.55;37.24;100450.41;4960457;28;1092;-55
2023/11/28 00:56:24;;;;;;;;;;;;;;;17.10;39.98;100439.19;4960770;28;1078;-56
2023/11/28 00:58:50;;;;;;;;;;;;;;;17.17;40.28;100439.50;4971384;28;1029;-55
2023/11/28 01:01:17;;;;;;;;;;;;;;;17.72;38.42;100435.94;4962963;28;1165;-56
2023/11/28 01:03:44;;;;;;;;;;;;;;;16.74;40.40;100421.53;4959403;28;1125;-54
2023/11/28 01:06:09;;;;;;;;;;;;;;;17.95;38.46;100431.38;4960285;28;1902;-53
2023/11/28 01:08:36;;;;;;;;;;;;;;;16.88;40.09;100424.91;4959563;28;1309;-51
2023/11/28 01:11:02;;;;;;;;;;;;;;;16.81;40.88;100418.38;4960868;28;1065;-52
2023/11/28 01:13:27;;;;;;;;;;;;;;;17.73;38.03;100403.91;4960527;28;1017;-53
2023/11/28 01:15:54;;;;;;;;;;;;;;;16.58;40.64;100413.91;4960708;28;1129;-52
2023/11/28 01:18:20;;;;;;;;;;;;;;;18.24;37.94;100413.94;4960486;28;1074;-55
2023/11/28 01:20:45;;;;;;;;;;;;;;;15.50;42.48;100406.03;4959221;28;1097;-54
2023/11/28 01:23:11;;;;;;;;;;;;;;;17.12;40.75;100397.34;4959415;28;1157;-55
2023/11/28 01:25:36;;;;;;;;;;;;;;;18.22;37.65;100398.09;4959915;28;1105;-56
2023/11/28 01:28:02;;;;;;;;;;;;;;;14.35;46.26;100390.31;4958772;28;1906;-56
2023/11/28 01:30:28;;;;;;;;;;;;;;;17.93;38.74;100385.44;4960515;28;1066;-56
2023/11/28 01:32:55;;;;;;;;;;;;;;;17.19;39.56;100387.91;4960529;28;1113;-57
2023/11/28 01:35:20;;;;;;;;;;;;;;;16.76;40.96;100377.09;4958646;28;1503;-54
2023/11/28 01:37:46;;;;;;;;;;;;;;;18.50;37.09;100370.88;4959041;28;1121;-57
2023/11/28 01:40:12;;;;;;;;;;;;;;;14.61;45.45;100363.81;4959955;28;1109;-55
2023/11/28 01:42:38;;;;;;;;;;;;;;;17.98;38.44;100367.22;4960493;28;1199;-56
2023/11/28 01:45:04;;;;;;;;;;;;;;;17.52;38.93;100363.97;4959947;28;1120;-55
2023/11/28 01:47:29;;;;;;;;;;;;;;;16.68;40.59;100358.28;4958755;28;1980;-56
2023/11/28 01:49:55;;;;;;;;;;;;;;;18.65;37.10;100355.34;4962961;28;1124;-54
2023/11/28 01:52:21;;;;;;;;;;;;;;;14.31;45.84;100345.53;4967157;28;1116;-54
2023/11/28 01:54:47;;;;;;;;;;;;;;;17.89;38.81;100346.75;4958408;28;1354;-56
2023/11/28 01:57:13;;;;;;;;;;;;;;;16.95;39.82;100345.56;4960059;28;1034;-53
2023/11/28 01:59:38;;;;;;;;;;;;;;;16.26;42.55;100335.00;4958603;28;1153;-53
2023/11/28 02:02:04;;;;;;;;;;;;;;;18.58;37.34;100325.75;4958498;28;1118;-57
2023/11/28 02:04:30;;;;;;;;;;;;;;;14.68;44.75;100323.56;4959673;28;1189;-55
2023/11/28 02:06:55;;;;;;;;;;;;;;;17.57;39.59;100323.69;4959031;28;1907;-54
2023/11/28 02:09:21;;;;;;;;;;;;;;;17.97;38.07;100324.78;4958690;28;1121;-52
2023/11/28 02:11:46;;;;;;;;;;;;;;;16.76;40.45;100329.28;4959389;28;1088;-58
2023/11/28 02:14:12;;;;;;;;;;;;;;;16.31;41.05;100318.72;4959336;28;1013;-57
2023/11/28 02:16:37;;;;;;;;;;;;;;;17.34;39.30;100318.50;4968636;28;1196;-55
2023/11/28 02:19:04;;;;;;;;;;;;;;;16.44;40.89;100316.78;4973466;28;1116;-57
2023/11/28 02:21:30;;;;;;;;;;;;;;;18.47;37.41;100315.22;4959629;28;1129;-53
2023/11/28 02:23:57;;;;;;;;;;;;;;;15.12;43.83;100322.25;4972427;28;1080;-55
2023/11/28 02:26:26;;;;;;;;;;;;;;;17.45;39.65;100325.59;4941674;29;1976;-58
2023/11/28 02:28:52;;;;;;;;;;;;;;;18.11;37.70;100315.63;4959216;28;1066;-60
2023/11/28 02:31:18;;;;;;;;;;;;;;;16.76;40.44;100318.66;4958857;28;1116;-58
2023/11/28 02:33:43;;;;;;;;;;;;;;;16.97;40.67;100323.19;4959258;28;1169;-58
2023/11/28 02:36:09;;;;;;;;;;;;;;;17.08;39.85;100321.47;4959024;28;1188;-55
2023/11/28 02:38:35;;;;;;;;;;;;;;;16.68;41.24;100320.25;4957751;28;1208;-57
2023/11/28 02:41:00;;;;;;;;;;;;;;;18.39;37.25;100315.03;4959108;28;998;-57
2023/11/28 02:43:26;;;;;;;;;;;;;;;16.83;40.28;100326.13;4961989;28;1085;-52
2023/11/28 02:45:52;;;;;;;;;;;;;;;16.65;41.10;100323.97;4967088;28;1906;-59
2023/11/28 02:48:17;;;;;;;;;;;;;;;17.06;39.96;100316.28;4958548;28;1009;-55
2023/11/28 02:50:43;;;;;;;;;;;;;;;16.63;41.20;100323.28;4957230;28;1128;-54
2023/11/28 02:53:08;;;;;;;;;;;;;;;18.66;37.04;100316.25;4958949;28;974;-54
2023/11/28 02:55:34;;;;;;;;;;;;;;;14.38;46.19;100310.72;4958781;28;1013;-57
2023/11/28 02:58:00;;;;;;;;;;;;;;;17.92;38.68;100308.34;4958154;28;1069;-54
2023/11/28 03:00:25;;;;;;;;;;;;;;;17.81;38.38;100311.97;4958638;28;1037;-55
2023/11/28 03:02:51;;;;;;;;;;;;;;;16.59;40.77;100306.75;4958618;28;1157;-55
2023/11/28 03:05:16;;;;;;;;;;;;;;;16.34;40.96;100305.19;4958733;28;1030;-57
2023/11/28 03:07:42;;;;;;;;;;;;;;;17.81;38.51;100299.50;4958057;28;1994;-58
2023/11/28 03:10:07;;;;;;;;;;;;;;;16.68;40.79;100280.41;4958208;28;1014;-55
2023/11/28 03:12:33;;;;;;;;;;;;;;;17.83;38.64;100280.75;4957141;28;1157;-57
2023/11/28 03:14:58;;;;;;;;;;;;;;;17.34;39.26;100278.63;4968797;28;854;-58
2023/11/28 03:17:24;;;;;;;;;;;;;;;16.48;40.83;100266.94;4959507;28;1042;-54
2023/11/28 03:19:49;;;;;;;;;;;;;;;18.35;37.52;100247.91;4958887;28;1117;-59
2023/11/28 03:22:15;;;;;;;;;;;;;;;16.80;40.30;100250.19;4958279;28;1069;-56
2023/11/28 03:24:42;;;;;;;;;;;;;;;17.59;39.43;100244.63;4968761;28;1164;-58
2023/11/28 03:27:07;;;;;;;;;;;;;;;16.98;39.81;100245.16;4960761;28;1985;-54
2023/11/28 03:29:34;;;;;;;;;;;;;;;15.99;42.97;100230.06;4957850;28;1116;-57
2023/11/28 03:32:00;;;;;;;;;;;;;;;18.44;37.48;100244.44;4958021;28;1053;-54
2023/11/28 03:34:26;;;;;;;;;;;;;;;16.93;40.18;100242.06;4956915;28;1133;-56
2023/11/28 03:36:52;;;;;;;;;;;;;;;17.47;39.56;100243.84;4958157;28;1068;-59
2023/11/28 03:39:19;;;;;;;;;;;;;;;17.40;38.86;100245.38;4957535;28;1055;-58
2023/11/28 03:41:48;;;;;;;;;;;;;;;15.96;43.37;100256.81;4958347;28;1152;-57
2023/11/28 03:44:14;;;;;;;;;;;;;;;18.51;37.37;100247.38;4958277;28;1338;-59
2023/11/28 03:46:39;;;;;;;;;;;;;;;17.02;40.13;100245.75;4962287;28;1902;-57
2023/11/28 03:49:05;;;;;;;;;;;;;;;16.47;41.08;100244.00;4960611;29;1093;-56
2023/11/28 03:51:30;;;;;;;;;;;;;;;17.56;39.27;100242.22;4962041;28;1231;-57
2023/11/28 03:53:56;;;;;;;;;;;;;;;16.49;41.00;100228.78;4962096;28;1045;-56
2023/11/28 03:56:21;;;;;;;;;;;;;;;18.19;38.10;100225.31;4960432;28;1117;-59
2023/11/28 03:58:47;;;;;;;;;;;;;;;16.21;41.16;100225.72;4971599;28;1136;-58
2023/11/28 04:01:13;;;;;;;;;;;;;;;16.61;41.64;100229.59;4961941;28;1049;-60
2023/11/28 04:03:38;;;;;;;;;;;;;;;18.65;37.19;100230.16;4961840;28;834;-57
2023/11/28 04:06:04;;;;;;;;;;;;;;;17.01;40.08;100230.78;4961710;28;1914;-57
2023/11/28 04:08:30;;;;;;;;;;;;;;;16.51;41.15;100218.88;4953059;29;1284;-56
2023/11/28 04:10:55;;;;;;;;;;;;;;;17.28;40.01;100232.13;4960167;28;1089;-57
2023/11/28 04:13:21;;;;;;;;;;;;;;;16.83;40.71;100225.19;4961562;28;1058;-56
2023/11/28 04:15:46;;;;;;;;;;;;;;;17.28;40.01;100215.34;4960053;28;1066;-54
2023/11/28 04:18:12;;;;;;;;;;;;;;;17.98;37.97;100214.72;4959814;28;1134;-49
2023/11/28 04:20:38;;;;;;;;;;;;;;;15.32;44.70;100222.72;4960020;28;1189;-50
2023/11/28 04:23:05;;;;;;;;;;;;;;;18.23;38.05;100215.22;4960184;28;1224;-48
2023/11/28 04:25:30;;;;;;;;;;;;;;;17.22;39.56;100206.06;4960409;28;1306;-50
2023/11/28 04:27:56;;;;;;;;;;;;;;;16.45;41.10;100204.28;4960925;28;1971;-51
2023/11/28 04:30:22;;;;;;;;;;;;;;;17.84;38.64;100197.28;4959947;28;1129;-49
2023/11/28 04:32:48;;;;;;;;;;;;;;;16.69;40.64;100211.22;4961608;28;1010;-44
2023/11/28 04:35:13;;;;;;;;;;;;;;;17.70;39.09;100195.84;4960050;28;1400;-47
2023/11/28 04:37:40;;;;;;;;;;;;;;;17.45;38.88;100196.13;4959796;28;1300;-51
2023/11/28 04:40:06;;;;;;;;;;;;;;;16.65;40.64;100202.66;4959208;28;1515;-52
2023/11/28 04:42:32;;;;;;;;;;;;;;;18.15;38.15;100197.25;4959901;28;1260;-56
2023/11/28 04:44:58;;;;;;;;;;;;;;;16.89;40.20;100191.00;4959107;28;2030;-52
2023/11/28 04:47:23;;;;;;;;;;;;;;;17.58;39.30;100198.56;4960781;28;2244;-56
2023/11/28 04:49:49;;;;;;;;;;;;;;;17.84;38.38;100190.16;4956780;28;2235;-55
2023/11/28 04:52:15;;;;;;;;;;;;;;;16.72;40.40;100188.88;4964992;28;2002;-54
2023/11/28 04:54:40;;;;;;;;;;;;;;;18.18;37.99;100182.84;4951617;28;1912;-53
2023/11/28 04:57:06;;;;;;;;;;;;;;;17.20;38.93;100181.44;4957149;28;1936;-54
2023/11/28 04:59:31;;;;;;;;;;;;;;;16.65;39.86;100180.56;4962940;28;1975;-45
2023/11/28 05:01:57;;;;;;;;;;;;;;;17.68;38.33;100181.81;4958567;28;1157;-43
2023/11/28 05:04:22;;;;;;;;;;;;;;;16.80;39.67;100181.13;4957363;28;1232;-43
2023/11/28 05:06:48;;;;;;;;;;;;;;;18.21;37.25;100194.06;4970250;28;1953;-48
2023/11/28 05:09:19;;;;;;;;;;;;;;;16.53;39.97;100188.56;4974344;28;1981;-50
2023/11/28 05:11:45;;;;;;;;;;;;;;;16.65;40.85;100173.44;4959527;28;1021;-47
2023/11/28 05:14:11;;;;;;;;;;;;;;;18.73;36.25;100181.50;4958112;29;2426;-46
2023/11/28 05:16:36;;;;;;;;;;;;;;;14.60;44.36;100163.59;4958622;28;1157;-46
2023/11/28 05:19:02;;;;;;;;;;;;;;;17.80;38.47;100166.63;4957879;28;1176;-52
2023/11/28 05:21:29;;;;;;;;;;;;;;;17.40;38.30;100161.09;4976077;28;1415;-50
2023/11/28 05:23:57;;;;;;;;;;;;;;;15.72;43.29;100164.94;4966858;28;1240;-49
2023/11/28 05:26:22;;;;;;;;;;;;;;;18.41;37.02;100150.66;4966852;28;1918;-47
2023/11/28 05:28:48;;;;;;;;;;;;;;;15.34;43.12;100166.97;4962366;28;1890;-51
2023/11/28 05:31:14;;;;;;;;;;;;;;;16.64;40.66;100169.13;4969595;28;1137;-50
2023/11/28 05:33:40;;;;;;;;;;;;;;;16.82;39.77;100165.91;4971228;28;1391;-48
2023/11/28 05:36:07;;;;;;;;;;;;;;;16.71;40.13;100150.00;4957767;28;1409;-48
2023/11/28 05:38:33;;;;;;;;;;;;;;;16.46;40.44;100152.06;4958857;28;1363;-50
2023/11/28 05:40:59;;;;;;;;;;;;;;;16.37;40.06;100140.38;4958051;28;1275;-48
2023/11/28 05:43:28;;;;;;;;;;;;;;;16.09;39.54;100148.78;4959985;28;1198;-52
2023/11/28 05:45:54;;;;;;;;;;;;;;;15.78;40.75;100144.06;4963617;28;1910;-50
2023/11/28 05:48:20;;;;;;;;;;;;;;;15.47;41.86;100135.03;4961791;28;919;-51
2023/11/28 05:50:45;;;;;;;;;;;;;;;15.30;42.51;100151.31;4976492;28;1310;-48
2023/11/28 05:53:12;;;;;;;;;;;;;;;15.13;42.97;100139.34;4967320;28;874;-52
2023/11/28 05:55:38;;;;;;;;;;;;;;;14.99;43.40;100145.72;4965708;28;1089;-48
2023/11/28 05:58:04;;;;;;;;;;;;;;;14.89;43.37;100139.41;4976332;28;1939;-49
2023/11/28 06:00:31;;;;;;;;;;;;;;;14.73;43.88;100137.88;4971160;28;1427;-52
2023/11/28 06:02:56;;;;;;;;;;;;;;;16.50;40.19;100138.38;4959051;28;998;-50
2023/11/28 06:05:22;;;;;;;;;;;;;;;16.24;40.32;100133.41;4958805;28;871;-43
2023/11/28 06:07:49;;;;;;;;;;;;;;;15.49;41.71;100141.06;4964539;28;1970;-46
2023/11/28 06:10:15;;;;;;;;;;;;;;;15.18;42.64;100131.06;4965874;28;1089;-44
2023/11/28 06:12:41;;;;;;;;;;;;;;;14.89;43.48;100140.28;4974273;28;1117;-46
2023/11/28 06:15:07;;;;;;;;;;;;;;;15.73;41.61;100132.16;4957867;28;1152;-51
2023/11/28 06:17:32;;;;;;;;;;;;;;;16.93;39.00;100130.47;4965420;28;1144;-44
2023/11/28 06:19:58;;;;;;;;;;;;;;;15.86;41.19;100118.75;4974903;28;1009;-47
2023/11/28 06:22:24;;;;;;;;;;;;;;;15.25;42.26;100119.00;4977280;28;1084;-47
2023/11/28 06:24:50;;;;;;;;;;;;;;;15.05;42.97;100124.03;4962185;28;1117;-47
2023/11/28 06:27:15;;;;;;;;;;;;;;;14.79;43.73;100116.25;4955436;28;2013;-47
2023/11/28 06:29:43;;;;;;;;;;;;;;;15.71;41.93;100110.22;4958499;28;2078;-50
2023/11/28 06:32:08;;;;;;;;;;;;;;;17.05;38.77;100107.31;4973150;28;1109;-46
2023/11/28 06:34:34;;;;;;;;;;;;;;;16.31;39.95;100101.06;4970252;28;1124;-47
2023/11/28 06:36:59;;;;;;;;;;;;;;;15.52;41.89;100104.56;4968273;28;1438;-48
2023/11/28 06:39:26;;;;;;;;;;;;;;;15.20;42.41;100085.91;4967797;28;1627;-47
2023/11/28 06:41:52;;;;;;;;;;;;;;;15.04;43.18;100103.81;4973691;28;1279;-48
2023/11/28 06:44:20;;;;;;;;;;;;;;;15.29;42.66;100103.72;4965835;28;902;-50
2023/11/28 06:46:49;;;;;;;;;;;;;;;16.85;39.32;100098.41;4974418;28;1876;-45
2023/11/28 06:49:14;;;;;;;;;;;;;;;15.77;41.60;100093.81;4972895;28;1147;-47
2023/11/28 06:51:40;;;;;;;;;;;;;;;15.16;42.40;100082.63;4961261;28;1128;-49
2023/11/28 06:54:05;;;;;;;;;;;;;;;14.98;43.27;100084.91;4962809;28;1357;-49
2023/11/28 06:56:31;;;;;;;;;;;;;;;16.37;40.53;100080.16;4966089;28;1160;-51
2023/11/28 06:58:56;;;;;;;;;;;;;;;15.95;40.65;100077.41;4953456;29;1043;-54
2023/11/28 07:01:23;;;;;;;;;;;;;;;15.32;42.57;100062.88;4956359;29;1387;-51
2023/11/28 07:03:49;;;;;;;;;;;;;;;15.61;42.06;100060.59;4959801;28;1145;-46
2023/11/28 07:06:14;;;;;;;;;;;;;;;16.91;39.30;100055.38;4977495;28;1957;-52
2023/11/28 07:08:40;;;;;;;;;;;;;;;16.78;39.39;100055.56;4965060;28;1075;-54
2023/11/28 07:11:06;;;;;;;;;;;;;;;16.28;40.47;100062.34;4961539;28;1345;-43
2023/11/28 07:13:32;;;;;;;;;;;;;;;17.45;38.03;100057.03;4965571;28;1010;-48
2023/11/28 07:15:58;;;;;;;;;;;;;;;16.62;39.73;100061.31;4958195;28;1346;-46
2023/11/28 07:18:24;;;;;;;;;;;;;;;17.01;39.14;100048.28;4965319;28;1212;-54
2023/11/28 07:20:49;;;;;;;;;;;;;;;17.69;37.56;100048.69;4971379;28;1172;-51
2023/11/28 07:23:18;;;;;;;;;;;;;;;16.86;39.59;100058.41;4970486;28;1132;-47
2023/11/28 07:25:45;;;;;;;;;;;;;;;16.18;40.87;100046.34;4976924;28;1125;-50
2023/11/28 07:28:10;;;;;;;;;;;;;;;16.71;39.99;100046.44;4958516;28;1981;-46
2023/11/28 07:30:36;;;;;;;;;;;;;;;17.02;39.49;100038.47;4957293;28;1247;-49
2023/11/28 07:33:01;;;;;;;;;;;;;;;16.33;40.72;100046.88;4968204;28;941;-46
2023/11/28 07:35:27;;;;;;;;;;;;;;;17.20;39.43;100036.06;4964142;28;1139;-50
2023/11/28 07:37:52;;;;;;;;;;;;;;;16.82;40.04;100037.53;4965247;28;1236;-48
2023/11/28 07:40:18;;;;;;;;;;;;;;;16.24;40.93;100037.88;4969820;28;1439;-47
2023/11/28 07:42:43;;;;;;;;;;;;;;;16.74;40.15;100024.94;4958814;28;1113;-45
2023/11/28 07:45:09;;;;;;;;;;;;;;;17.11;39.22;100020.94;4953127;28;1169;-45
2023/11/28 07:47:34;;;;;;;;;;;;;;;16.44;40.78;100018.59;4965799;28;1914;-50
2023/11/28 07:50:00;;;;;;;;;;;;;;;17.17;39.57;100025.72;4962180;28;1200;-47
2023/11/28 07:52:25;;;;;;;;;;;;;;;17.97;37.38;100024.06;4960859;28;1534;-47
2023/11/28 07:54:51;;;;;;;;;;;;;;;17.07;38.99;100022.13;4960226;28;923;-49
2023/11/28 07:57:16;;;;;;;;;;;;;;;17.62;38.29;100027.13;4975470;28;1103;-50
2023/11/28 07:59:46;;;;;;;;;;;;;;;18.14;37.35;100033.22;4977023;28;1056;-49
2023/11/28 08:02:14;;;;;;;;;;;;;;;17.08;39.46;100035.28;4964413;28;1145;-51
2023/11/28 08:04:40;;;;;;;;;;;;;;;16.67;40.24;100034.38;4963667;28;1155;-48
2023/11/28 08:07:05;;;;;;;;;;;;;;;17.91;38.19;100021.97;4956986;28;1918;-46
2023/11/28 08:09:31;;;;;;;;;;;;;;;17.46;38.62;100013.50;4969551;28;1086;-42
2023/11/28 08:11:56;;;;;;;;;;;;;;;17.00;39.88;100003.22;4954972;28;1394;-47
2023/11/28 08:14:22;;;;;;;;;;;;;;;18.14;37.67;100005.75;4958697;28;1311;-42
2023/11/28 08:16:47;;;;;;;;;;;;;;;17.20;39.51;100012.16;4971105;28;1124;-44
2023/11/28 08:19:13;;;;;;;;;;;;;;;16.67;40.55;100002.50;4962826;28;1448;-53
2023/11/28 08:21:38;;;;;;;;;;;;;;;17.89;38.43;99994.66;4964972;28;1147;-52
2023/11/28 08:24:04;;;;;;;;;;;;;;;18.66;36.16;99981.41;4970672;28;1148;-55
2023/11/28 08:26:30;;;;;;;;;;;;;;;17.95;36.88;99978.97;4956739;28;1914;-46
2023/11/28 08:28:55;;;;;;;;;;;;;;;17.70;37.20;99980.38;4958274;28;895;-50
2023/11/28 08:31:21;;;;;;;;;;;;;;;17.52;37.51;99969.56;4969773;28;1180;-37
2023/11/28 08:33:47;;;;;;;;;;;;;;;16.74;39.41;99982.44;4974195;28;1011;-42
2023/11/28 08:36:13;;;;;;;;;;;;;;;16.40;40.32;99970.22;4961121;28;1049;-44
2023/11/28 08:38:38;;;;;;;;;;;;;;;17.58;38.55;99972.50;4960597;28;1104;-43
2023/11/28 08:41:04;;;;;;;;;;;;;;;18.08;37.40;99965.38;4965055;28;1034;-41
2023/11/28 08:43:29;;;;;;;;;;;;;;;17.20;39.27;99947.53;4978292;28;1144;-42
2023/11/28 08:45:55;;;;;;;;;;;;;;;17.20;38.59;99936.91;4969681;28;1064;-42
2023/11/28 08:48:20;;;;;;;;;;;;;;;18.20;37.13;99939.47;4976702;28;1946;-43
2023/11/28 08:50:46;;;;;;;;;;;;;;;17.71;37.43;99923.53;4968856;28;1149;-43
2023/11/28 08:53:11;;;;;;;;;;;;;;;17.49;37.32;99917.50;4967977;28;1042;-41
2023/11/28 08:55:37;;;;;;;;;;;;;;;17.27;37.89;99911.44;4969557;28;1132;-39
2023/11/28 08:58:02;;;;;;;;;;;;;;;17.06;38.12;99909.72;4968000;28;1124;-41
2023/11/28 09:00:28;;;;;;;;;;;;;;;16.52;40.13;99899.31;4956292;29;1382;-41
2023/11/28 09:02:53;;;;;;;;;;;;;;;16.26;40.25;99892.63;4970004;28;1038;-41
2023/11/28 09:05:20;;;;;;;;;;;;;;;16.11;40.98;99884.16;4965427;28;1117;-43
2023/11/28 09:07:47;;;;;;;;;;;;;;;17.30;38.62;99876.63;4971452;28;1906;-47
2023/11/28 09:10:13;;;;;;;;;;;;;;;16.53;39.79;99864.66;4979409;28;1048;-41
2023/11/28 09:12:38;;;;;;;;;;;;;;;16.20;40.57;99869.25;4969475;28;1129;-43
2023/11/28 09:15:04;;;;;;;;;;;;;;;16.01;41.24;99864.69;4973433;28;1148;-47
2023/11/28 09:17:30;;;;;;;;;;;;;;;17.19;38.90;99858.13;4962473;28;1159;-40
2023/11/28 09:19:56;;;;;;;;;;;;;;;16.79;39.65;99852.72;4976931;28;1167;-37
2023/11/28 09:22:21;;;;;;;;;;;;;;;16.23;40.81;99862.84;4979321;28;1033;-39
2023/11/28 09:24:47;;;;;;;;;;;;;;;16.01;41.08;99848.78;4964366;28;1151;-46
2023/11/28 09:27:12;;;;;;;;;;;;;;;16.80;39.81;99854.41;4951871;28;1910;-47
2023/11/28 09:29:38;;;;;;;;;;;;;;;17.97;37.48;99848.44;4962556;28;1363;-49
2023/11/28 09:32:04;;;;;;;;;;;;;;;17.46;37.60;99838.00;4959946;28;1029;-49
2023/11/28 09:34:31;;;;;;;;;;;;;;;17.04;38.74;99826.63;4962706;28;1270;-52
2023/11/28 09:36:56;;;;;;;;;;;;;;;17.00;38.80;99810.13;4970714;28;1572;-42
2023/11/28 09:39:23;;;;;;;;;;;;;;;17.98;37.58;99810.22;4979017;28;1093;-39
2023/11/28 09:41:49;;;;;;;;;;;;;;;18.94;36.14;99807.38;4956048;28;1091;-42
2023/11/28 09:44:15;;;;;;;;;;;;;;;19.49;35.27;99802.06;4947918;28;1416;-42
2023/11/28 09:46:51;;;;;;;;;;;;;;;16.88;40.43;99795.28;4958952;28;2013;-41
2023/11/28 09:49:17;;;;;;;;;;;;;;;18.88;36.79;99779.53;4960019;28;1042;-40
2023/11/28 09:51:46;;;;;;;;;;;;;;;18.23;37.63;99782.13;4949034;28;1282;-38
2023/11/28 09:54:11;;;;;;;;;;;;;;;16.75;41.75;99779.59;4957943;28;1454;-39
2023/11/28 09:56:37;;;;;;;;;;;;;;;19.48;36.31;99779.06;4957562;28;1145;-39
2023/11/28 09:59:02;;;;;;;;;;;;;;;17.00;41.38;99775.56;4958408;28;1038;-38
2023/11/28 10:01:28;;;;;;;;;;;;;;;18.08;39.40;99771.06;4955965;28;1239;-45
2023/11/28 10:03:53;;;;;;;;;;;;;;;17.41;40.80;99769.31;4958392;28;925;-41
2023/11/28 10:06:20;;;;;;;;;;;;;;;16.98;42.03;99766.91;4956176;28;1989;-43
2023/11/28 10:08:47;;;;;;;;;;;;;;;16.83;42.71;99755.84;4957943;28;1335;-40
2023/11/28 10:11:12;;;;;;;;;;;;;;;16.61;42.61;99749.81;4958998;28;1370;-38
2023/11/28 10:13:38;;;;;;;;;;;;;;;16.40;43.60;99736.63;4958199;28;1050;-43
2023/11/28 10:16:04;;;;;;;;;;;;;;;18.04;40.52;99743.09;4950828;28;1116;-45
2023/11/28 10:18:29;;;;;;;;;;;;;;;18.64;38.83;99732.97;4959385;28;901;-44
2023/11/28 10:20:55;;;;;;;;;;;;;;;17.28;41.77;99724.41;4955102;28;1078;-44
2023/11/28 10:23:20;;;;;;;;;;;;;;;16.64;43.22;99733.63;4959409;28;1053;-43
2023/11/28 10:25:46;;;;;;;;;;;;;;;17.93;40.59;99729.97;4954287;28;1306;-42
2023/11/28 10:28:15;;;;;;;;;;;;;;;18.72;38.22;99716.22;4954120;29;1990;-40
2023/11/28 10:30:40;;;;;;;;;;;;;;;17.43;40.63;99718.66;4961285;28;1108;-42
2023/11/28 10:33:09;;;;;;;;;;;;;;;16.99;41.66;99706.63;4968187;28;1093;-41
2023/11/28 10:35:39;;;;;;;;;;;;;;;17.87;40.13;99708.28;4977761;28;1069;-43
2023/11/28 10:38:06;;;;;;;;;;;;;;;18.92;37.91;99702.75;4967764;28;1484;-43
2023/11/28 10:40:31;;;;;;;;;;;;;;;17.19;41.33;99688.91;4955866;28;1358;-42
2023/11/28 10:42:57;;;;;;;;;;;;;;;16.56;42.77;99687.47;4957805;28;1171;-41
2023/11/28 10:45:22;;;;;;;;;;;;;;;18.42;39.01;99691.63;4962027;28;1119;-43
2023/11/28 10:47:48;;;;;;;;;;;;;;;18.23;38.97;99696.13;4977589;28;1980;-43
2023/11/28 10:50:13;;;;;;;;;;;;;;;16.92;41.76;99689.56;4971764;28;1165;-41
2023/11/28 10:52:39;;;;;;;;;;;;;;;17.19;41.42;99686.25;4977016;28;1105;-41
2023/11/28 10:55:09;;;;;;;;;;;;;;;18.97;37.13;99676.47;4959361;28;1142;-47
2023/11/28 10:57:52;;;;;;;;;;;;;;;17.34;40.48;99667.19;4977500;28;1175;-41
2023/11/28 11:00:20;;;;;;;;;;;;;;;17.55;39.49;99658.16;4973226;28;1281;-44
2023/11/28 11:02:45;;;;;;;;;;;;;;;18.04;38.53;99670.41;4963329;28;1080;-42
2023/11/28 11:05:11;;;;;;;;;;;;;;;19.14;36.36;99633.97;4957107;28;1400;-50
2023/11/28 11:07:36;;;;;;;;;;;;;;;18.13;37.95;99650.91;4960337;28;1902;-46
2023/11/28 11:10:09;;;;;;;;;;;;;;;17.55;39.05;99643.03;4966691;28;1451;-46
2023/11/28 11:12:37;;;;;;;;;;;;;;;17.77;39.04;99640.97;4977215;28;1073;-43
2023/11/28 11:15:04;;;;;;;;;;;;;;;19.04;36.55;99629.56;4968345;28;1264;-43
2023/11/28 11:17:30;;;;;;;;;;;;;;;17.71;39.02;99625.63;4960204;28;1065;-45
2023/11/28 11:19:56;;;;;;;;;;;;;;;17.23;40.14;99623.00;4967038;28;1061;-47
2023/11/28 11:22:21;;;;;;;;;;;;;;;17.93;39.12;99629.72;4955165;28;1127;-48
2023/11/28 11:24:47;;;;;;;;;;;;;;;17.91;38.79;99623.69;4976071;28;1037;-46
2023/11/28 11:27:12;;;;;;;;;;;;;;;16.80;41.06;99623.31;4962587;28;1918;-42
2023/11/28 11:29:39;;;;;;;;;;;;;;;16.32;42.29;99606.41;4965601;28;1213;-44
2023/11/28 11:32:09;;;;;;;;;;;;;;;18.09;39.10;99596.28;4957429;28;1116;-50
2023/11/28 11:34:41;;;;;;;;;;;;;;;19.75;35.35;99604.59;4976383;28;1453;-53
2023/11/28 11:37:13;;;;;;;;;;;;;;;16.53;41.70;99590.38;4957490;28;1245;-45
2023/11/28 11:39:42;;;;;;;;;;;;;;;15.63;44.06;99588.56;4952334;28;1210;-53
2023/11/28 11:42:09;;;;;;;;;;;;;;;15.27;45.38;99587.16;4957465;28;1177;-42
2023/11/28 11:44:35;;;;;;;;;;;;;;;14.99;45.88;99586.88;4953073;28;1366;-43
2023/11/28 11:47:24;;;;;;;;;;;;;;;14.66;46.88;99575.47;4972706;28;1910;-42
2023/11/28 11:49:50;;;;;;;;;;;;;;;14.42;47.48;99569.47;4964482;28;1106;-40
2023/11/28 11:52:15;;;;;;;;;;;;;;;14.45;47.69;99568.34;4952209;28;1138;-42
2023/11/28 11:54:41;;;;;;;;;;;;;;;14.30;47.73;99565.16;4946262;28;1043;-44
2023/11/28 11:57:07;;;;;;;;;;;;;;;14.20;47.74;99557.16;4954311;28;1142;-44
2023/11/28 11:59:33;;;;;;;;;;;;;;;14.04;48.04;99545.19;4950835;28;1396;-43
2023/11/28 12:02:01;;;;;;;;;;;;;;;13.91;48.41;99545.34;4954538;28;1189;-43
2023/11/28 12:04:29;;;;;;;;;;;;;;;13.80;49.00;99538.28;4957237;28;1404;-45
2023/11/28 12:07:07;;;;;;;;;;;;;;;13.75;48.77;99534.31;4957994;28;1982;-41
2023/11/28 12:09:33;;;;;;;;;;;;;;;13.65;49.07;99544.78;4950003;29;1125;-45
2023/11/28 12:11:58;;;;;;;;;;;;;;;13.54;49.28;99535.94;4960835;28;1397;-45
2023/11/28 12:14:24;;;;;;;;;;;;;;;13.65;49.02;99534.22;4953479;29;1605;-49
2023/11/28 12:16:51;;;;;;;;;;;;;;;13.43;49.18;99528.81;4960648;28;1059;-51
2023/11/28 12:19:16;;;;;;;;;;;;;;;13.34;49.33;99534.84;4961382;28;862;-54
2023/11/28 12:21:42;;;;;;;;;;;;;;;13.42;48.69;99535.06;4960384;28;1166;-44
2023/11/28 12:24:07;;;;;;;;;;;;;;;13.31;49.34;99533.28;4961094;28;1132;-43
2023/11/28 12:26:36;;;;;;;;;;;;;;;13.40;49.45;99522.94;4960374;28;2013;-46
2023/11/28 12:29:01;;;;;;;;;;;;;;;13.91;48.54;99526.00;4949635;28;1055;-45
2023/11/28 12:31:27;;;;;;;;;;;;;;;13.62;49.10;99513.34;4958910;28;1268;-47
2023/11/28 12:33:53;;;;;;;;;;;;;;;13.33;49.63;99512.88;4960086;28;1876;-56
2023/11/28 12:36:25;;;;;;;;;;;;;;;13.43;49.25;99505.03;4955577;28;1128;-43
2023/11/28 12:38:52;;;;;;;;;;;;;;;16.13;44.69;99492.19;4948597;28;1094;-46
2023/11/28 12:41:18;;;;;;;;;;;;;;;17.57;41.40;99488.66;4960582;28;1182;-43
2023/11/28 12:43:44;;;;;;;;;;;;;;;18.37;39.99;99488.91;4958828;28;1017;-47